Sherman, Illinois
Current Conditions -  °F | °C
As of 1:52 PM on Monday 26 Jan 2015 (Local Time) from KSPI Reporting Station
Overcast Overcast  
Wind Chill: 22°   Ceiling: 7000
Heat Index: 31°   Visibility: 10mi
Dew Point: 27°   Wind: 10mph
Humidity: 85%   Direction: 180°S
Pressure: 29.86"   Gusts: NA
Location:  39.89°N, 89.6°W
Report Text: KSPI 261952Z 18009KT 10SM FEW009 SCT019 OVC070 M01/M03 A2986 RMK AO2 UPB17E28SNE01 SLP120 P0000 T10061028
Loading
Personal Weather Stations






























Interactive Weather Map New forecast layout! Learn more

10-Day Weather Forecast

Advertisements
Track Severe Weather on mobile